sensor_id;sensor_type;location;lat;lon;timestamp;temperature;humidity
3713;DHT22;1872;51.406;6.856;2023-05-20T00:01:07;13.80;83.90
3713;DHT22;1872;51.406;6.856;2023-05-20T00:03:32;13.70;83.70
3713;DHT22;1872;51.406;6.856;2023-05-20T00:05:58;13.70;83.90
3713;DHT22;1872;51.406;6.856;2023-05-20T00:08:23;13.70;83.90
3713;DHT22;1872;51.406;6.856;2023-05-20T00:10:49;13.70;84.00
3713;DHT22;1872;51.406;6.856;2023-05-20T00:13:15;13.70;84.10
3713;DHT22;1872;51.406;6.856;2023-05-20T00:15:41;13.70;84.20
3713;DHT22;1872;51.406;6.856;2023-05-20T00:18:06;13.70;84.40
3713;DHT22;1872;51.406;6.856;2023-05-20T00:20:32;13.60;84.50
3713;DHT22;1872;51.406;6.856;2023-05-20T00:22:57;13.60;84.60
3713;DHT22;1872;51.406;6.856;2023-05-20T00:25:23;13.60;84.70
3713;DHT22;1872;51.406;6.856;2023-05-20T00:27:49;13.60;84.90
3713;DHT22;1872;51.406;6.856;2023-05-20T00:30:15;13.60;85.00
3713;DHT22;1872;51.406;6.856;2023-05-20T00:32:40;13.50;85.00
3713;DHT22;1872;51.406;6.856;2023-05-20T00:35:06;13.50;85.10
3713;DHT22;1872;51.406;6.856;2023-05-20T00:37:32;13.50;85.20
3713;DHT22;1872;51.406;6.856;2023-05-20T00:39:58;13.50;85.40
3713;DHT22;1872;51.406;6.856;2023-05-20T00:42:25;13.50;85.50
3713;DHT22;1872;51.406;6.856;2023-05-20T00:44:52;13.50;85.70
3713;DHT22;1872;51.406;6.856;2023-05-20T00:47:20;13.50;85.80
3713;DHT22;1872;51.406;6.856;2023-05-20T00:49:49;13.50;86.10
3713;DHT22;1872;51.406;6.856;2023-05-20T00:52:16;13.40;86.80
3713;DHT22;1872;51.406;6.856;2023-05-20T00:54:42;13.40;86.20
3713;DHT22;1872;51.406;6.856;2023-05-20T00:57:09;13.40;86.30
3713;DHT22;1872;51.406;6.856;2023-05-20T00:59:36;13.40;86.50
3713;DHT22;1872;51.406;6.856;2023-05-20T01:02:02;13.30;86.40
3713;DHT22;1872;51.406;6.856;2023-05-20T01:04:29;13.30;86.60
3713;DHT22;1872;51.406;6.856;2023-05-20T01:06:55;13.30;86.80
3713;DHT22;1872;51.406;6.856;2023-05-20T01:09:23;13.30;86.90
3713;DHT22;1872;51.406;6.856;2023-05-20T01:11:58;13.30;87.10
3713;DHT22;1872;51.406;6.856;2023-05-20T01:14:26;13.20;87.20
3713;DHT22;1872;51.406;6.856;2023-05-20T01:16:53;13.20;87.20
3713;DHT22;1872;51.406;6.856;2023-05-20T01:19:37;13.20;87.40
3713;DHT22;1872;51.406;6.856;2023-05-20T01:22:06;13.20;87.60
3713;DHT22;1872;51.406;6.856;2023-05-20T01:24:32;13.10;87.50
3713;DHT22;1872;51.406;6.856;2023-05-20T01:26:58;13.10;87.60
3713;DHT22;1872;51.406;6.856;2023-05-20T01:29:24;13.10;87.70
3713;DHT22;1872;51.406;6.856;2023-05-20T01:31:52;13.10;87.90
3713;DHT22;1872;51.406;6.856;2023-05-20T01:34:19;13.10;88.10
3713;DHT22;1872;51.406;6.856;2023-05-20T01:36:45;13.00;88.20
3713;DHT22;1872;51.406;6.856;2023-05-20T01:39:19;13.00;88.40
3713;DHT22;1872;51.406;6.856;2023-05-20T01:41:46;13.00;88.80
3713;DHT22;1872;51.406;6.856;2023-05-20T01:44:13;13.00;88.90
3713;DHT22;1872;51.406;6.856;2023-05-20T01:46:38;13.00;89.20
3713;DHT22;1872;51.406;6.856;2023-05-20T01:49:04;13.00;89.50
3713;DHT22;1872;51.406;6.856;2023-05-20T01:51:30;13.00;89.70
3713;DHT22;1872;51.406;6.856;2023-05-20T01:53:58;12.90;89.70
3713;DHT22;1872;51.406;6.856;2023-05-20T01:56:23;12.90;90.00
3713;DHT22;1872;51.406;6.856;2023-05-20T01:58:49;12.90;90.10
3713;DHT22;1872;51.406;6.856;2023-05-20T02:01:14;12.80;90.10
3713;DHT22;1872;51.406;6.856;2023-05-20T02:03:40;12.80;90.10
3713;DHT22;1872;51.406;6.856;2023-05-20T02:06:05;12.80;90.20
3713;DHT22;1872;51.406;6.856;2023-05-20T02:08:31;12.70;90.20
3713;DHT22;1872;51.406;6.856;2023-05-20T02:10:57;12.70;90.50
3713;DHT22;1872;51.406;6.856;2023-05-20T02:13:22;12.70;90.20
3713;DHT22;1872;51.406;6.856;2023-05-20T02:15:48;12.70;90.30
3713;DHT22;1872;51.406;6.856;2023-05-20T02:18:15;12.70;90.40
3713;DHT22;1872;51.406;6.856;2023-05-20T02:20:43;12.70;90.40
3713;DHT22;1872;51.406;6.856;2023-05-20T02:23:09;12.70;90.50
3713;DHT22;1872;51.406;6.856;2023-05-20T02:25:35;12.60;90.50
3713;DHT22;1872;51.406;6.856;2023-05-20T02:28:00;12.60;90.60
3713;DHT22;1872;51.406;6.856;2023-05-20T02:30:30;12.60;90.60
3713;DHT22;1872;51.406;6.856;2023-05-20T02:32:55;12.60;90.70
3713;DHT22;1872;51.406;6.856;2023-05-20T02:35:22;12.50;90.80
3713;DHT22;1872;51.406;6.856;2023-05-20T02:37:47;12.60;90.90
3713;DHT22;1872;51.406;6.856;2023-05-20T02:40:13;12.50;90.90
3713;DHT22;1872;51.406;6.856;2023-05-20T02:42:40;12.50;91.00
3713;DHT22;1872;51.406;6.856;2023-05-20T02:45:06;12.50;91.10
3713;DHT22;1872;51.406;6.856;2023-05-20T02:47:32;12.50;91.20
3713;DHT22;1872;51.406;6.856;2023-05-20T02:49:57;12.50;91.20
3713;DHT22;1872;51.406;6.856;2023-05-20T02:52:23;12.50;91.30
3713;DHT22;1872;51.406;6.856;2023-05-20T02:54:49;12.50;91.30
3713;DHT22;1872;51.406;6.856;2023-05-20T02:57:14;12.50;91.30
3713;DHT22;1872;51.406;6.856;2023-05-20T02:59:40;12.40;91.40
3713;DHT22;1872;51.406;6.856;2023-05-20T03:02:06;12.40;91.50
3713;DHT22;1872;51.406;6.856;2023-05-20T03:04:32;12.40;91.80
3713;DHT22;1872;51.406;6.856;2023-05-20T03:06:57;12.40;91.60
3713;DHT22;1872;51.406;6.856;2023-05-20T03:09:23;12.30;91.60
3713;DHT22;1872;51.406;6.856;2023-05-20T03:11:50;12.30;91.70
3713;DHT22;1872;51.406;6.856;2023-05-20T03:14:16;12.30;91.80
3713;DHT22;1872;51.406;6.856;2023-05-20T03:16:42;12.20;91.90
3713;DHT22;1872;51.406;6.856;2023-05-20T03:19:09;12.20;92.00
3713;DHT22;1872;51.406;6.856;2023-05-20T03:21:35;12.20;92.00
3713;DHT22;1872;51.406;6.856;2023-05-20T03:24:00;12.20;92.10
3713;DHT22;1872;51.406;6.856;2023-05-20T03:26:26;12.20;92.10
3713;DHT22;1872;51.406;6.856;2023-05-20T03:28:52;12.20;92.20
3713;DHT22;1872;51.406;6.856;2023-05-20T03:31:17;12.20;92.30
3713;DHT22;1872;51.406;6.856;2023-05-20T03:33:43;12.10;92.40
3713;DHT22;1872;51.406;6.856;2023-05-20T03:36:10;12.10;92.50
3713;DHT22;1872;51.406;6.856;2023-05-20T03:38:36;12.10;92.60
3713;DHT22;1872;51.406;6.856;2023-05-20T03:41:01;12.10;92.60
3713;DHT22;1872;51.406;6.856;2023-05-20T03:43:27;12.10;92.70
3713;DHT22;1872;51.406;6.856;2023-05-20T03:45:53;12.00;92.70
3713;DHT22;1872;51.406;6.856;2023-05-20T03:48:18;12.00;92.80
3713;DHT22;1872;51.406;6.856;2023-05-20T03:50:44;12.00;92.90
3713;DHT22;1872;51.406;6.856;2023-05-20T03:53:10;12.00;92.90
3713;DHT22;1872;51.406;6.856;2023-05-20T03:55:36;12.00;93.10
3713;DHT22;1872;51.406;6.856;2023-05-20T03:58:01;12.00;93.20
3713;DHT22;1872;51.406;6.856;2023-05-20T04:00:27;12.00;93.30
3713;DHT22;1872;51.406;6.856;2023-05-20T04:02:54;12.00;93.50
3713;DHT22;1872;51.406;6.856;2023-05-20T04:05:22;12.00;93.60
3713;DHT22;1872;51.406;6.856;2023-05-20T04:07:48;12.00;93.50
3713;DHT22;1872;51.406;6.856;2023-05-20T04:10:14;12.00;93.50
3713;DHT22;1872;51.406;6.856;2023-05-20T04:12:39;12.00;93.60
3713;DHT22;1872;51.406;6.856;2023-05-20T04:15:06;12.00;93.50
3713;DHT22;1872;51.406;6.856;2023-05-20T04:17:31;12.00;93.70
3713;DHT22;1872;51.406;6.856;2023-05-20T04:19:57;12.10;93.80
3713;DHT22;1872;51.406;6.856;2023-05-20T04:22:26;12.00;93.90
3713;DHT22;1872;51.406;6.856;2023-05-20T04:24:52;12.10;94.00
3713;DHT22;1872;51.406;6.856;2023-05-20T04:27:17;12.10;94.10
3713;DHT22;1872;51.406;6.856;2023-05-20T04:29:45;12.10;94.20
3713;DHT22;1872;51.406;6.856;2023-05-20T04:32:16;12.10;94.30
3713;DHT22;1872;51.406;6.856;2023-05-20T04:34:42;12.20;94.40
3713;DHT22;1872;51.406;6.856;2023-05-20T04:37:09;12.20;94.50
3713;DHT22;1872;51.406;6.856;2023-05-20T04:39:35;12.10;94.60
3713;DHT22;1872;51.406;6.856;2023-05-20T04:42:02;12.20;94.60
3713;DHT22;1872;51.406;6.856;2023-05-20T04:44:27;12.20;94.70
3713;DHT22;1872;51.406;6.856;2023-05-20T04:46:54;12.20;94.80
3713;DHT22;1872;51.406;6.856;2023-05-20T04:49:20;12.10;94.90
3713;DHT22;1872;51.406;6.856;2023-05-20T04:51:46;12.20;94.90
3713;DHT22;1872;51.406;6.856;2023-05-20T04:54:14;12.20;95.10
3713;DHT22;1872;51.406;6.856;2023-05-20T04:56:42;12.20;95.10
3713;DHT22;1872;51.406;6.856;2023-05-20T04:59:08;12.20;95.20
3713;DHT22;1872;51.406;6.856;2023-05-20T05:01:35;12.10;95.30
3713;DHT22;1872;51.406;6.856;2023-05-20T05:04:01;12.10;95.40
3713;DHT22;1872;51.406;6.856;2023-05-20T05:06:27;12.10;95.50
3713;DHT22;1872;51.406;6.856;2023-05-20T05:08:52;12.20;95.70
3713;DHT22;1872;51.406;6.856;2023-05-20T05:11:18;12.20;95.90
3713;DHT22;1872;51.406;6.856;2023-05-20T05:13:44;12.20;95.90
3713;DHT22;1872;51.406;6.856;2023-05-20T05:16:10;12.20;96.10
3713;DHT22;1872;51.406;6.856;2023-05-20T05:18:35;12.20;96.20
3713;DHT22;1872;51.406;6.856;2023-05-20T05:21:02;12.30;96.30
3713;DHT22;1872;51.406;6.856;2023-05-20T05:23:28;12.30;96.40
3713;DHT22;1872;51.406;6.856;2023-05-20T05:25:54;12.30;96.50
3713;DHT22;1872;51.406;6.856;2023-05-20T05:28:20;12.40;96.70
3713;DHT22;1872;51.406;6.856;2023-05-20T05:30:45;12.40;96.70
3713;DHT22;1872;51.406;6.856;2023-05-20T05:33:12;12.50;96.90
3713;DHT22;1872;51.406;6.856;2023-05-20T05:35:38;12.50;97.00
3713;DHT22;1872;51.406;6.856;2023-05-20T05:38:05;12.60;97.00
3713;DHT22;1872;51.406;6.856;2023-05-20T05:40:30;12.60;97.10
3713;DHT22;1872;51.406;6.856;2023-05-20T05:42:56;12.70;97.20
3713;DHT22;1872;51.406;6.856;2023-05-20T05:45:22;12.80;97.30
3713;DHT22;1872;51.406;6.856;2023-05-20T05:47:47;12.80;97.40
3713;DHT22;1872;51.406;6.856;2023-05-20T05:50:13;12.90;97.50
3713;DHT22;1872;51.406;6.856;2023-05-20T05:52:38;13.20;97.80
3713;DHT22;1872;51.406;6.856;2023-05-20T05:55:04;14.00;97.60
3713;DHT22;1872;51.406;6.856;2023-05-20T05:57:30;14.50;97.50
3713;DHT22;1872;51.406;6.856;2023-05-20T05:59:56;15.30;97.40
3713;DHT22;1872;51.406;6.856;2023-05-20T06:02:21;16.30;97.00
3713;DHT22;1872;51.406;6.856;2023-05-20T06:04:47;17.20;96.60
3713;DHT22;1872;51.406;6.856;2023-05-20T06:07:13;17.90;95.70
3713;DHT22;1872;51.406;6.856;2023-05-20T06:09:38;18.30;95.40
3713;DHT22;1872;51.406;6.856;2023-05-20T06:12:04;18.80;95.00
3713;DHT22;1872;51.406;6.856;2023-05-20T06:14:30;19.00;94.30
3713;DHT22;1872;51.406;6.856;2023-05-20T06:16:56;19.30;93.50
3713;DHT22;1872;51.406;6.856;2023-05-20T06:19:22;19.10;92.60
3713;DHT22;1872;51.406;6.856;2023-05-20T06:21:53;19.00;92.40
3713;DHT22;1872;51.406;6.856;2023-05-20T06:24:18;18.80;91.80
3713;DHT22;1872;51.406;6.856;2023-05-20T06:26:44;18.50;91.80
3713;DHT22;1872;51.406;6.856;2023-05-20T06:29:10;18.20;92.00
3713;DHT22;1872;51.406;6.856;2023-05-20T06:31:36;17.90;92.20
3713;DHT22;1872;51.406;6.856;2023-05-20T06:34:02;18.00;92.70
3713;DHT22;1872;51.406;6.856;2023-05-20T06:36:27;17.80;92.30
3713;DHT22;1872;51.406;6.856;2023-05-20T06:38:53;17.50;92.50
3713;DHT22;1872;51.406;6.856;2023-05-20T06:41:19;17.30;92.50
3713;DHT22;1872;51.406;6.856;2023-05-20T06:43:46;17.00;92.50
3713;DHT22;1872;51.406;6.856;2023-05-20T06:46:12;16.90;92.70
3713;DHT22;1872;51.406;6.856;2023-05-20T06:48:38;16.80;92.90
3713;DHT22;1872;51.406;6.856;2023-05-20T06:51:07;16.70;93.20
3713;DHT22;1872;51.406;6.856;2023-05-20T06:53:35;16.90;93.40
3713;DHT22;1872;51.406;6.856;2023-05-20T06:56:04;17.00;93.10
3713;DHT22;1872;51.406;6.856;2023-05-20T06:58:30;17.00;93.20
3713;DHT22;1872;51.406;6.856;2023-05-20T07:00:56;17.10;93.00
3713;DHT22;1872;51.406;6.856;2023-05-20T07:03:22;17.00;93.00
3713;DHT22;1872;51.406;6.856;2023-05-20T07:05:49;17.30;93.60
3713;DHT22;1872;51.406;6.856;2023-05-20T07:08:14;17.70;93.60
3713;DHT22;1872;51.406;6.856;2023-05-20T07:10:40;17.70;92.60
3713;DHT22;1872;51.406;6.856;2023-05-20T07:13:06;17.50;92.10
3713;DHT22;1872;51.406;6.856;2023-05-20T07:15:33;17.30;92.10
3713;DHT22;1872;51.406;6.856;2023-05-20T07:17:58;17.10;92.00
3713;DHT22;1872;51.406;6.856;2023-05-20T07:20:24;17.00;92.00
3713;DHT22;1872;51.406;6.856;2023-05-20T07:22:50;16.70;92.10
3713;DHT22;1872;51.406;6.856;2023-05-20T07:25:16;16.50;92.10
3713;DHT22;1872;51.406;6.856;2023-05-20T07:27:41;16.30;92.10
3713;DHT22;1872;51.406;6.856;2023-05-20T07:30:07;16.20;92.40
3713;DHT22;1872;51.406;6.856;2023-05-20T07:32:33;16.20;92.60
3713;DHT22;1872;51.406;6.856;2023-05-20T07:34:59;16.20;92.80
3713;DHT22;1872;51.406;6.856;2023-05-20T07:37:24;16.20;92.80
3713;DHT22;1872;51.406;6.856;2023-05-20T07:39:50;16.30;93.00
3713;DHT22;1872;51.406;6.856;2023-05-20T07:42:16;16.40;93.00
3713;DHT22;1872;51.406;6.856;2023-05-20T07:44:41;16.30;93.00
3713;DHT22;1872;51.406;6.856;2023-05-20T07:47:08;16.30;93.10
3713;DHT22;1872;51.406;6.856;2023-05-20T07:49:33;16.40;93.20
3713;DHT22;1872;51.406;6.856;2023-05-20T07:51:59;16.40;93.10
3713;DHT22;1872;51.406;6.856;2023-05-20T07:54:25;16.30;93.10
3713;DHT22;1872;51.406;6.856;2023-05-20T07:56:51;16.30;93.20
3713;DHT22;1872;51.406;6.856;2023-05-20T07:59:17;16.30;93.40
3713;DHT22;1872;51.406;6.856;2023-05-20T08:01:43;16.20;93.50
3713;DHT22;1872;51.406;6.856;2023-05-20T08:04:09;16.10;93.60
3713;DHT22;1872;51.406;6.856;2023-05-20T08:06:34;16.10;93.70
3713;DHT22;1872;51.406;6.856;2023-05-20T08:09:01;16.10;93.60
3713;DHT22;1872;51.406;6.856;2023-05-20T08:11:27;16.10;93.80
3713;DHT22;1872;51.406;6.856;2023-05-20T08:13:52;16.10;93.70
3713;DHT22;1872;51.406;6.856;2023-05-20T08:16:20;16.20;93.80
3713;DHT22;1872;51.406;6.856;2023-05-20T08:18:46;16.20;93.80
3713;DHT22;1872;51.406;6.856;2023-05-20T08:21:11;16.20;93.80
3713;DHT22;1872;51.406;6.856;2023-05-20T08:23:38;16.10;93.80
3713;DHT22;1872;51.406;6.856;2023-05-20T08:26:04;16.20;93.90
3713;DHT22;1872;51.406;6.856;2023-05-20T08:28:30;16.20;94.00
3713;DHT22;1872;51.406;6.856;2023-05-20T08:30:56;16.30;94.10
3713;DHT22;1872;51.406;6.856;2023-05-20T08:33:25;16.40;94.20
3713;DHT22;1872;51.406;6.856;2023-05-20T08:35:50;16.40;94.20
3713;DHT22;1872;51.406;6.856;2023-05-20T08:38:16;16.40;94.20
3713;DHT22;1872;51.406;6.856;2023-05-20T08:40:42;16.40;94.20
3713;DHT22;1872;51.406;6.856;2023-05-20T08:43:08;16.40;94.20
3713;DHT22;1872;51.406;6.856;2023-05-20T08:45:36;16.40;94.20
3713;DHT22;1872;51.406;6.856;2023-05-20T08:48:02;16.50;94.60
3713;DHT22;1872;51.406;6.856;2023-05-20T08:50:32;16.50;94.50
3713;DHT22;1872;51.406;6.856;2023-05-20T08:52:59;16.60;94.60
3713;DHT22;1872;51.406;6.856;2023-05-20T08:58:24;16.80;94.50
3713;DHT22;1872;51.406;6.856;2023-05-20T09:00:51;16.80;94.70
3713;DHT22;1872;51.406;6.856;2023-05-20T09:03:17;16.80;94.40
3713;DHT22;1872;51.406;6.856;2023-05-20T09:05:45;16.90;94.50
3713;DHT22;1872;51.406;6.856;2023-05-20T09:08:11;17.00;94.40
3713;DHT22;1872;51.406;6.856;2023-05-20T09:10:38;17.10;94.40
3713;DHT22;1872;51.406;6.856;2023-05-20T09:13:05;17.10;94.40
3713;DHT22;1872;51.406;6.856;2023-05-20T09:15:32;17.10;94.40
3713;DHT22;1872;51.406;6.856;2023-05-20T09:18:06;17.10;94.40
3713;DHT22;1872;51.406;6.856;2023-05-20T09:20:35;17.10;94.20
3713;DHT22;1872;51.406;6.856;2023-05-20T09:23:07;17.00;94.20
3713;DHT22;1872;51.406;6.856;2023-05-20T09:25:33;17.00;94.30
3713;DHT22;1872;51.406;6.856;2023-05-20T09:27:59;17.00;94.30
3713;DHT22;1872;51.406;6.856;2023-05-20T09:30:25;17.00;94.60
3713;DHT22;1872;51.406;6.856;2023-05-20T09:32:55;17.00;94.30
3713;DHT22;1872;51.406;6.856;2023-05-20T09:35:25;17.00;94.40
3713;DHT22;1872;51.406;6.856;2023-05-20T09:37:52;17.00;94.40
3713;DHT22;1872;51.406;6.856;2023-05-20T09:40:25;16.90;94.40
3713;DHT22;1872;51.406;6.856;2023-05-20T09:42:53;16.90;94.40
3713;DHT22;1872;51.406;6.856;2023-05-20T09:45:19;16.90;94.50
3713;DHT22;1872;51.406;6.856;2023-05-20T09:47:47;16.90;94.50
3713;DHT22;1872;51.406;6.856;2023-05-20T09:50:14;17.00;94.60
3713;DHT22;1872;51.406;6.856;2023-05-20T09:52:43;17.10;94.60
3713;DHT22;1872;51.406;6.856;2023-05-20T09:55:09;17.10;94.50
3713;DHT22;1872;51.406;6.856;2023-05-20T09:57:36;17.00;94.40
3713;DHT22;1872;51.406;6.856;2023-05-20T10:00:06;17.00;94.50
3713;DHT22;1872;51.406;6.856;2023-05-20T10:02:50;17.00;94.40
3713;DHT22;1872;51.406;6.856;2023-05-20T10:05:22;16.90;94.40
3713;DHT22;1872;51.406;6.856;2023-05-20T10:16:28;16.90;94.50
3713;DHT22;1872;51.406;6.856;2023-05-20T10:19:20;16.80;94.60
3713;DHT22;1872;51.406;6.856;2023-05-20T10:21:58;16.90;94.90
3713;DHT22;1872;51.406;6.856;2023-05-20T10:24:32;16.90;94.80
3713;DHT22;1872;51.406;6.856;2023-05-20T10:27:01;17.00;94.80
3713;DHT22;1872;51.406;6.856;2023-05-20T10:29:27;17.00;94.70
3713;DHT22;1872;51.406;6.856;2023-05-20T10:31:53;17.00;94.70
3713;DHT22;1872;51.406;6.856;2023-05-20T10:34:21;17.00;94.80
3713;DHT22;1872;51.406;6.856;2023-05-20T10:39:24;17.10;95.00
3713;DHT22;1872;51.406;6.856;2023-05-20T10:41:50;17.10;95.00
3713;DHT22;1872;51.406;6.856;2023-05-20T10:44:16;17.10;95.00
3713;DHT22;1872;51.406;6.856;2023-05-20T10:46:42;17.10;94.90
3713;DHT22;1872;51.406;6.856;2023-05-20T10:49:18;17.10;94.70
3713;DHT22;1872;51.406;6.856;2023-05-20T10:51:45;16.90;94.70
3713;DHT22;1872;51.406;6.856;2023-05-20T10:54:12;16.90;94.90
3713;DHT22;1872;51.406;6.856;2023-05-20T10:56:39;16.90;95.00
3713;DHT22;1872;51.406;6.856;2023-05-20T10:59:14;16.90;95.00
3713;DHT22;1872;51.406;6.856;2023-05-20T11:01:42;16.90;95.00
3713;DHT22;1872;51.406;6.856;2023-05-20T11:04:08;17.00;95.10
3713;DHT22;1872;51.406;6.856;2023-05-20T11:06:34;17.10;95.30
3713;DHT22;1872;51.406;6.856;2023-05-20T11:09:05;17.10;95.20
3713;DHT22;1872;51.406;6.856;2023-05-20T11:11:31;17.10;95.20
3713;DHT22;1872;51.406;6.856;2023-05-20T11:13:56;17.20;95.30
3713;DHT22;1872;51.406;6.856;2023-05-20T11:16:22;17.30;95.20
3713;DHT22;1872;51.406;6.856;2023-05-20T11:18:48;17.30;95.20
3713;DHT22;1872;51.406;6.856;2023-05-20T11:21:15;17.30;95.30
3713;DHT22;1872;51.406;6.856;2023-05-20T11:23:41;17.30;95.20
3713;DHT22;1872;51.406;6.856;2023-05-20T11:26:06;17.30;95.20
3713;DHT22;1872;51.406;6.856;2023-05-20T11:28:34;17.30;95.40
3713;DHT22;1872;51.406;6.856;2023-05-20T11:31:00;17.30;95.30
3713;DHT22;1872;51.406;6.856;2023-05-20T11:33:26;17.50;95.40
3713;DHT22;1872;51.406;6.856;2023-05-20T11:35:52;17.60;95.60
3713;DHT22;1872;51.406;6.856;2023-05-20T11:38:19;17.70;95.60
3713;DHT22;1872;51.406;6.856;2023-05-20T11:40:50;17.70;95.40
3713;DHT22;1872;51.406;6.856;2023-05-20T11:43:15;17.70;95.40
3713;DHT22;1872;51.406;6.856;2023-05-20T11:45:42;17.70;95.50
3713;DHT22;1872;51.406;6.856;2023-05-20T11:48:09;17.80;95.70
3713;DHT22;1872;51.406;6.856;2023-05-20T11:50:38;17.90;95.90
3713;DHT22;1872;51.406;6.856;2023-05-20T11:53:09;18.00;95.80
3713;DHT22;1872;51.406;6.856;2023-05-20T11:55:51;18.00;95.80
3713;DHT22;1872;51.406;6.856;2023-05-20T11:58:19;18.10;95.80
3713;DHT22;1872;51.406;6.856;2023-05-20T12:00:45;18.20;95.80
3713;DHT22;1872;51.406;6.856;2023-05-20T12:03:10;18.30;96.10
3713;DHT22;1872;51.406;6.856;2023-05-20T12:05:37;18.30;95.70
3713;DHT22;1872;51.406;6.856;2023-05-20T12:08:03;18.40;95.90
3713;DHT22;1872;51.406;6.856;2023-05-20T12:10:29;18.50;96.00
3713;DHT22;1872;51.406;6.856;2023-05-20T12:12:55;18.60;95.90
3713;DHT22;1872;51.406;6.856;2023-05-20T12:15:21;18.60;95.70
3713;DHT22;1872;51.406;6.856;2023-05-20T12:17:50;18.60;95.60
3713;DHT22;1872;51.406;6.856;2023-05-20T12:20:17;18.70;95.70
3713;DHT22;1872;51.406;6.856;2023-05-20T12:22:46;18.70;95.60
3713;DHT22;1872;51.406;6.856;2023-05-20T12:25:15;18.80;95.60
3713;DHT22;1872;51.406;6.856;2023-05-20T12:27:42;18.80;95.70
3713;DHT22;1872;51.406;6.856;2023-05-20T12:30:09;18.90;95.70
3713;DHT22;1872;51.406;6.856;2023-05-20T12:32:36;19.00;95.90
3713;DHT22;1872;51.406;6.856;2023-05-20T12:35:02;19.00;95.40
3713;DHT22;1872;51.406;6.856;2023-05-20T12:37:28;19.10;95.30
3713;DHT22;1872;51.406;6.856;2023-05-20T12:39:53;19.10;95.30
3713;DHT22;1872;51.406;6.856;2023-05-20T12:42:19;19.20;95.30
3713;DHT22;1872;51.406;6.856;2023-05-20T12:44:45;19.20;95.10
3713;DHT22;1872;51.406;6.856;2023-05-20T12:47:10;19.10;94.80
3713;DHT22;1872;51.406;6.856;2023-05-20T12:49:36;19.10;94.80
3713;DHT22;1872;51.406;6.856;2023-05-20T12:52:02;19.00;94.80
3713;DHT22;1872;51.406;6.856;2023-05-20T12:54:27;19.00;94.80
3713;DHT22;1872;51.406;6.856;2023-05-20T12:56:56;19.00;94.90
3713;DHT22;1872;51.406;6.856;2023-05-20T12:59:22;19.00;94.80
3713;DHT22;1872;51.406;6.856;2023-05-20T13:01:48;19.00;94.60
3713;DHT22;1872;51.406;6.856;2023-05-20T13:04:13;19.00;94.50
3713;DHT22;1872;51.406;6.856;2023-05-20T13:06:40;19.00;94.50
3713;DHT22;1872;51.406;6.856;2023-05-20T13:09:06;19.00;94.60
3713;DHT22;1872;51.406;6.856;2023-05-20T13:11:32;19.00;94.70
3713;DHT22;1872;51.406;6.856;2023-05-20T13:13:58;19.10;94.80
3713;DHT22;1872;51.406;6.856;2023-05-20T13:16:24;19.10;94.80
3713;DHT22;1872;51.406;6.856;2023-05-20T13:18:50;19.20;94.60
3713;DHT22;1872;51.406;6.856;2023-05-20T13:21:16;19.10;94.50
3713;DHT22;1872;51.406;6.856;2023-05-20T13:23:42;19.10;94.40
3713;DHT22;1872;51.406;6.856;2023-05-20T13:26:08;19.10;94.30
3713;DHT22;1872;51.406;6.856;2023-05-20T13:28:34;19.10;94.30
3713;DHT22;1872;51.406;6.856;2023-05-20T13:31:04;19.10;94.20
3713;DHT22;1872;51.406;6.856;2023-05-20T13:33:31;19.10;94.20
3713;DHT22;1872;51.406;6.856;2023-05-20T13:35:57;19.10;94.10
3713;DHT22;1872;51.406;6.856;2023-05-20T13:38:23;19.10;94.10
3713;DHT22;1872;51.406;6.856;2023-05-20T13:40:48;19.10;94.10
3713;DHT22;1872;51.406;6.856;2023-05-20T13:43:14;19.00;93.90
3713;DHT22;1872;51.406;6.856;2023-05-20T13:45:41;19.00;94.00
3713;DHT22;1872;51.406;6.856;2023-05-20T13:48:07;18.90;93.90
3713;DHT22;1872;51.406;6.856;2023-05-20T13:50:32;18.90;93.90
3713;DHT22;1872;51.406;6.856;2023-05-20T13:52:58;18.80;93.80
3713;DHT22;1872;51.406;6.856;2023-05-20T13:55:24;18.80;93.80
3713;DHT22;1872;51.406;6.856;2023-05-20T13:57:49;18.70;93.80
3713;DHT22;1872;51.406;6.856;2023-05-20T14:00:17;18.70;93.90
3713;DHT22;1872;51.406;6.856;2023-05-20T14:02:43;18.80;94.00
3713;DHT22;1872;51.406;6.856;2023-05-20T14:05:09;18.80;93.90
3713;DHT22;1872;51.406;6.856;2023-05-20T14:07:35;18.80;93.90
3713;DHT22;1872;51.406;6.856;2023-05-20T14:10:00;18.80;93.90
3713;DHT22;1872;51.406;6.856;2023-05-20T14:12:26;18.90;93.90
3713;DHT22;1872;51.406;6.856;2023-05-20T14:14:52;19.00;93.90
3713;DHT22;1872;51.406;6.856;2023-05-20T14:17:18;19.10;94.00
3713;DHT22;1872;51.406;6.856;2023-05-20T14:19:43;19.10;93.90
3713;DHT22;1872;51.406;6.856;2023-05-20T14:22:09;19.20;93.90
3713;DHT22;1872;51.406;6.856;2023-05-20T14:24:36;19.30;93.90
3713;DHT22;1872;51.406;6.856;2023-05-20T14:27:02;19.30;93.70
3713;DHT22;1872;51.406;6.856;2023-05-20T14:29:27;19.30;93.70
3713;DHT22;1872;51.406;6.856;2023-05-20T14:31:53;19.30;93.60
3713;DHT22;1872;51.406;6.856;2023-05-20T14:34:19;19.40;93.60
3713;DHT22;1872;51.406;6.856;2023-05-20T14:36:45;19.40;93.50
3713;DHT22;1872;51.406;6.856;2023-05-20T14:39:10;19.30;93.40
3713;DHT22;1872;51.406;6.856;2023-05-20T14:41:36;19.40;93.40
3713;DHT22;1872;51.406;6.856;2023-05-20T14:44:01;19.30;93.20
3713;DHT22;1872;51.406;6.856;2023-05-20T14:46:27;19.30;93.20
3713;DHT22;1872;51.406;6.856;2023-05-20T14:48:53;19.40;93.30
3713;DHT22;1872;51.406;6.856;2023-05-20T14:51:18;19.40;93.30
3713;DHT22;1872;51.406;6.856;2023-05-20T14:53:44;19.40;93.20
3713;DHT22;1872;51.406;6.856;2023-05-20T14:56:10;19.40;93.20
3713;DHT22;1872;51.406;6.856;2023-05-20T14:58:36;19.30;93.10
3713;DHT22;1872;51.406;6.856;2023-05-20T15:01:01;19.30;93.00
3713;DHT22;1872;51.406;6.856;2023-05-20T15:03:28;19.20;92.90
3713;DHT22;1872;51.406;6.856;2023-05-20T15:05:54;19.10;92.80
3713;DHT22;1872;51.406;6.856;2023-05-20T15:08:20;19.00;92.80
3713;DHT22;1872;51.406;6.856;2023-05-20T15:10:45;19.00;92.80
3713;DHT22;1872;51.406;6.856;2023-05-20T15:13:11;18.90;92.90
3713;DHT22;1872;51.406;6.856;2023-05-20T15:15:37;19.00;93.00
3713;DHT22;1872;51.406;6.856;2023-05-20T15:18:02;18.90;93.00
3713;DHT22;1872;51.406;6.856;2023-05-20T15:20:28;18.90;93.00
3713;DHT22;1872;51.406;6.856;2023-05-20T15:22:55;19.00;93.10
3713;DHT22;1872;51.406;6.856;2023-05-20T15:25:20;19.00;93.00
3713;DHT22;1872;51.406;6.856;2023-05-20T15:27:46;18.90;92.90
3713;DHT22;1872;51.406;6.856;2023-05-20T15:30:12;18.90;92.90
3713;DHT22;1872;51.406;6.856;2023-05-20T15:32:38;18.80;92.90
3713;DHT22;1872;51.406;6.856;2023-05-20T15:35:04;18.80;92.90
3713;DHT22;1872;51.406;6.856;2023-05-20T15:37:30;18.80;92.90
3713;DHT22;1872;51.406;6.856;2023-05-20T15:39:56;18.70;92.90
3713;DHT22;1872;51.406;6.856;2023-05-20T15:42:22;18.70;93.00
3713;DHT22;1872;51.406;6.856;2023-05-20T15:44:47;18.70;93.10
3713;DHT22;1872;51.406;6.856;2023-05-20T15:47:13;18.60;93.10
3713;DHT22;1872;51.406;6.856;2023-05-20T15:49:38;18.60;93.20
3713;DHT22;1872;51.406;6.856;2023-05-20T15:52:04;18.50;93.20
3713;DHT22;1872;51.406;6.856;2023-05-20T15:54:30;18.50;93.20
3713;DHT22;1872;51.406;6.856;2023-05-20T15:56:57;18.50;93.20
3713;DHT22;1872;51.406;6.856;2023-05-20T15:59:24;18.50;93.30
3713;DHT22;1872;51.406;6.856;2023-05-20T16:01:50;18.70;93.40
3713;DHT22;1872;51.406;6.856;2023-05-20T16:04:15;18.70;93.30
3713;DHT22;1872;51.406;6.856;2023-05-20T16:06:41;18.80;93.30
3713;DHT22;1872;51.406;6.856;2023-05-20T16:09:06;18.90;93.70
3713;DHT22;1872;51.406;6.856;2023-05-20T16:11:32;18.90;93.30